createdAt,value
2019-05-02T00:01:11.996Z,9.50
2019-05-02T00:03:42.904Z,9.50
2019-05-02T00:06:11.994Z,9.40
2019-05-02T00:08:40.492Z,9.40
2019-05-02T00:11:10.581Z,9.50
2019-05-02T00:13:39.376Z,9.40
2019-05-02T00:16:09.105Z,9.40
2019-05-02T00:18:39.063Z,9.30
2019-05-02T00:21:08.509Z,9.30
2019-05-02T00:23:37.196Z,9.30
2019-05-02T00:26:06.676Z,9.30
2019-05-02T00:28:35.119Z,9.20
2019-05-02T00:31:07.462Z,9.20
2019-05-02T00:33:35.606Z,9.10
2019-05-02T00:36:04.627Z,9.10
2019-05-02T00:38:37.919Z,9.10
2019-05-02T00:41:03.702Z,9.10
2019-05-02T00:43:34.604Z,9.00
2019-05-02T00:46:02.562Z,9.00
2019-05-02T00:48:32.657Z,9.00
2019-05-02T00:51:01.077Z,8.90
2019-05-02T00:53:29.521Z,8.90
2019-05-02T00:55:57.972Z,8.90
2019-05-02T00:58:27.319Z,8.90
2019-05-02T01:01:04.425Z,8.90
2019-05-02T01:03:34.511Z,8.80
2019-05-02T01:06:03.099Z,8.80
2019-05-02T01:08:35.708Z,8.80
2019-05-02T01:11:01.878Z,8.70
2019-05-02T01:13:30.308Z,8.70
2019-05-02T01:15:58.794Z,8.70
2019-05-02T01:18:27.249Z,8.70
2019-05-02T01:20:58.069Z,8.60
2019-05-02T01:23:27.502Z,8.60
2019-05-02T01:25:56.049Z,8.50
2019-05-02T01:28:26.138Z,8.60
2019-05-02T01:31:18.476Z,8.60
2019-05-02T01:33:48.952Z,8.60
2019-05-02T01:36:21.760Z,8.60
2019-05-02T01:38:51.048Z,8.70
2019-05-02T01:41:19.501Z,8.70
2019-05-02T01:43:47.952Z,8.50
2019-05-02T01:46:17.134Z,8.50
2019-05-02T01:48:47.767Z,8.50
2019-05-02T01:51:16.507Z,8.40
2019-05-02T01:53:44.901Z,8.40
2019-05-02T01:56:13.344Z,8.40
2019-05-02T01:58:41.860Z,8.40
2019-05-02T02:01:10.316Z,8.40
2019-05-02T02:03:40.422Z,8.30
2019-05-02T02:06:10.136Z,8.30
2019-05-02T02:08:38.795Z,8.30
2019-05-02T02:11:07.218Z,8.30
2019-05-02T02:13:36.636Z,8.30
2019-05-02T02:16:06.161Z,8.20
2019-05-02T02:18:36.304Z,8.30
2019-05-02T02:21:15.583Z,8.20
2019-05-02T02:23:53.594Z,8.10
2019-05-02T02:26:23.672Z,8.20
2019-05-02T02:28:52.116Z,8.10
2019-05-02T02:31:21.557Z,8.10
2019-05-02T02:33:50.186Z,8.10
2019-05-02T02:36:30.029Z,8.10
2019-05-02T02:38:48.902Z,8.00
2019-05-02T02:41:17.342Z,8.00
2019-05-02T02:43:47.458Z,7.90
2019-05-02T02:46:23.290Z,8.00
2019-05-02T02:48:51.734Z,8.00
2019-05-02T02:51:24.056Z,8.10
2019-05-02T02:53:50.334Z,8.10
2019-05-02T02:56:18.793Z,8.10
2019-05-02T02:58:48.050Z,8.10
2019-05-02T03:01:27.767Z,8.10
2019-05-02T03:03:48.384Z,8.20
2019-05-02T03:06:16.827Z,8.20
2019-05-02T03:08:48.877Z,8.20
2019-05-02T03:11:23.226Z,8.30
2019-05-02T03:14:07.446Z,8.30
2019-05-02T03:16:45.606Z,8.40
2019-05-02T03:19:06.865Z,8.50
2019-05-02T03:21:35.564Z,8.40
2019-05-02T03:24:05.780Z,8.40
2019-05-02T03:26:34.558Z,8.40
2019-05-02T03:29:03.310Z,8.40
2019-05-02T03:31:31.916Z,8.50
2019-05-02T03:34:01.454Z,8.50
2019-05-02T03:36:36.416Z,8.60
2019-05-02T03:39:06.618Z,8.60
2019-05-02T03:41:30.797Z,8.70
2019-05-02T03:44:10.842Z,8.70
2019-05-02T03:46:29.479Z,8.70
2019-05-02T03:49:05.961Z,8.60
2019-05-02T03:51:28.196Z,8.70
2019-05-02T03:54:06.439Z,8.80
2019-05-02T03:56:26.863Z,8.80
2019-05-02T03:58:57.942Z,8.80
2019-05-02T04:01:26.526Z,8.80
2019-05-02T04:03:55.148Z,8.80
2019-05-02T04:06:24.723Z,8.90
2019-05-02T04:08:59.991Z,8.90
2019-05-02T04:11:24.646Z,8.90
2019-05-02T04:13:54.700Z,8.90
2019-05-02T04:16:23.825Z,9.00
2019-05-02T04:18:55.697Z,9.00
2019-05-02T04:21:26.038Z,9.00
2019-05-02T04:23:53.352Z,9.00
2019-05-02T04:26:21.857Z,9.00
2019-05-02T04:28:51.618Z,9.00
2019-05-02T04:31:24.826Z,9.00
2019-05-02T04:33:50.825Z,9.00
2019-05-02T04:36:19.256Z,9.10
2019-05-02T04:38:51.978Z,9.10
2019-05-02T04:41:28.278Z,9.20
2019-05-02T04:43:57.391Z,9.20
2019-05-02T04:46:25.828Z,9.20
2019-05-02T04:48:52.503Z,9.20
2019-05-02T04:51:20.352Z,9.20
2019-05-02T04:53:49.763Z,9.30
2019-05-02T04:56:18.878Z,9.30
2019-05-02T04:58:49.361Z,9.40
2019-05-02T05:01:20.979Z,9.40
2019-05-02T05:03:56.990Z,9.50
2019-05-02T05:06:19.010Z,9.40
2019-05-02T05:08:48.360Z,9.40
2019-05-02T05:11:21.300Z,9.40
2019-05-02T05:13:47.909Z,9.40
2019-05-02T05:16:18.461Z,9.40
2019-05-02T05:18:49.477Z,9.30
2019-05-02T05:21:17.944Z,9.40
2019-05-02T05:23:51.844Z,9.40
2019-05-02T05:26:27.614Z,9.50
2019-05-02T05:28:58.459Z,9.50
2019-05-02T05:31:31.452Z,9.50
2019-05-02T05:34:10.824Z,9.60
2019-05-02T05:36:40.965Z,9.60
2019-05-02T05:39:14.282Z,9.60
2019-05-02T05:41:52.008Z,9.60
2019-05-02T05:44:30.593Z,9.70
2019-05-02T05:46:58.220Z,9.70
2019-05-02T05:49:29.238Z,9.90
2019-05-02T05:52:00.659Z,9.80
2019-05-02T05:54:28.461Z,9.80
2019-05-02T05:56:58.424Z,9.90
2019-05-02T05:59:32.286Z,9.80
2019-05-02T06:02:09.969Z,9.90
2019-05-02T06:04:39.456Z,9.90
2019-05-02T06:07:12.615Z,9.90
2019-05-02T06:09:46.758Z,9.90
2019-05-02T06:12:11.462Z,9.90
2019-05-02T06:14:42.664Z,9.90
2019-05-02T06:17:13.586Z,9.80
2019-05-02T06:19:43.495Z,9.90
2019-05-02T06:22:16.599Z,10.00
2019-05-02T06:24:46.138Z,10.00
2019-05-02T06:27:20.684Z,10.00
2019-05-02T06:29:51.078Z,10.10
2019-05-02T06:32:24.509Z,10.10
2019-05-02T06:34:57.401Z,10.20
2019-05-02T06:37:26.125Z,10.30
2019-05-02T06:39:55.104Z,10.30
2019-05-02T06:42:27.692Z,10.40
2019-05-02T06:45:01.112Z,10.60
2019-05-02T06:47:36.032Z,10.60
2019-05-02T06:50:07.628Z,10.70
2019-05-02T06:52:37.899Z,10.40
2019-05-02T06:55:08.256Z,10.50
2019-05-02T06:57:36.754Z,10.60
2019-05-02T07:00:10.237Z,10.60
2019-05-02T07:02:43.351Z,10.70
2019-05-02T07:05:19.663Z,10.90
2019-05-02T07:07:53.913Z,11.00
2019-05-02T07:10:26.717Z,11.00
2019-05-02T07:13:10.658Z,10.90
2019-05-02T07:15:40.529Z,10.70
2019-05-02T07:18:12.256Z,10.60
2019-05-02T07:20:42.697Z,10.70
2019-05-02T07:23:16.713Z,10.70
2019-05-02T07:25:50.115Z,10.80
2019-05-02T07:28:24.173Z,10.90
2019-05-02T07:30:56.772Z,10.90
2019-05-02T07:33:25.205Z,10.90
2019-05-02T07:36:00.048Z,10.90
2019-05-02T07:38:29.245Z,10.80
2019-05-02T07:40:59.569Z,10.90
2019-05-02T07:43:32.569Z,10.90
2019-05-02T07:46:08.426Z,10.90
2019-05-02T07:48:43.649Z,11.00
2019-05-02T07:51:17.232Z,11.10
2019-05-02T07:53:49.814Z,11.20
2019-05-02T07:56:19.415Z,11.40
2019-05-02T07:58:48.224Z,11.70
2019-05-02T08:01:18.026Z,11.70
2019-05-02T08:03:49.843Z,11.70
2019-05-02T08:06:19.709Z,11.90
2019-05-02T08:08:48.139Z,12.20
2019-05-02T08:11:18.815Z,12.10
2019-05-02T08:13:55.739Z,12.10
2019-05-02T08:16:27.432Z,12.40
2019-05-02T08:19:01.452Z,12.50
2019-05-02T08:21:34.579Z,12.20
2019-05-02T08:24:06.849Z,12.40
2019-05-02T08:26:44.165Z,12.70
2019-05-02T08:29:16.597Z,12.80
2019-05-02T08:31:49.439Z,12.90
2019-05-02T08:34:21.173Z,13.00
2019-05-02T08:36:50.237Z,13.10
2019-05-02T08:39:18.726Z,13.60
2019-05-02T08:41:56.234Z,13.40
2019-05-02T08:44:26.993Z,13.50
2019-05-02T08:47:00.922Z,13.50
2019-05-02T08:49:32.977Z,13.40
2019-05-02T08:52:02.875Z,13.60
2019-05-02T08:54:32.834Z,13.60
2019-05-02T08:57:01.929Z,13.80
2019-05-02T08:59:35.337Z,13.90
2019-05-02T09:02:09.940Z,13.80
2019-05-02T09:04:42.154Z,13.90
2019-05-02T09:07:11.948Z,13.70
2019-05-02T09:09:40.735Z,13.60
2019-05-02T09:12:13.243Z,13.50
2019-05-02T09:14:46.037Z,13.90
2019-05-02T09:17:32.184Z,13.70
2019-05-02T09:20:00.418Z,13.60
2019-05-02T09:22:27.299Z,14.00
2019-05-02T09:25:02.137Z,13.90
2019-05-02T09:27:34.069Z,13.90
2019-05-02T09:30:03.450Z,14.00
2019-05-02T09:32:32.674Z,14.20
2019-05-02T09:35:06.215Z,14.30
2019-05-02T09:37:36.425Z,14.30
2019-05-02T09:40:12.490Z,15.00
2019-05-02T09:42:47.662Z,15.20
2019-05-02T09:45:22.737Z,16.00
2019-05-02T09:48:04.115Z,15.70
2019-05-02T09:50:31.415Z,16.40
2019-05-02T09:53:02.619Z,16.70
2019-05-02T09:55:34.889Z,16.50
2019-05-02T09:58:10.395Z,16.70
2019-05-02T10:00:59.186Z,17.30
2019-05-02T10:03:26.918Z,17.50
2019-05-02T10:05:55.876Z,17.10
2019-05-02T10:08:26.242Z,17.50
2019-05-02T10:10:58.358Z,17.50
2019-05-02T10:13:29.350Z,17.10
2019-05-02T10:15:57.241Z,17.20
2019-05-02T10:18:30.222Z,17.40
2019-05-02T10:20:59.076Z,17.60
2019-05-02T10:23:31.918Z,18.00
2019-05-02T10:25:57.740Z,17.80
2019-05-02T10:28:28.429Z,17.70
2019-05-02T10:31:02.335Z,17.50
2019-05-02T10:33:37.555Z,17.50
2019-05-02T10:36:11.866Z,17.40
2019-05-02T10:38:43.049Z,17.10
2019-05-02T10:41:12.758Z,17.40
2019-05-02T10:43:42.295Z,18.10
2019-05-02T10:46:33.461Z,18.30
2019-05-02T10:49:07.743Z,17.90
2019-05-02T10:51:36.198Z,18.10
2019-05-02T10:54:12.032Z,18.30
2019-05-02T10:56:42.600Z,18.30
2019-05-02T10:59:15.342Z,18.40
2019-05-02T11:01:49.012Z,18.00
2019-05-02T11:04:18.927Z,17.40
2019-05-02T11:06:47.387Z,17.90
2019-05-02T11:09:22.437Z,18.30
2019-05-02T11:11:52.062Z,18.40
2019-05-02T11:14:27.708Z,19.10
2019-05-02T11:17:03.548Z,18.70
2019-05-02T11:19:44.316Z,18.60
2019-05-02T11:22:13.081Z,18.60
2019-05-02T11:24:42.306Z,18.70
2019-05-02T11:27:15.633Z,18.90
2019-05-02T11:29:47.608Z,18.80
2019-05-02T11:32:16.228Z,18.90
2019-05-02T11:34:44.716Z,18.60
2019-05-02T11:37:17.556Z,18.60
2019-05-02T11:39:53.692Z,18.00
2019-05-02T11:42:27.207Z,17.80
2019-05-02T11:44:58.933Z,17.60
2019-05-02T11:47:33.472Z,17.80
2019-05-02T11:50:07.640Z,17.40
2019-05-02T11:52:39.456Z,17.50
2019-05-02T11:55:13.926Z,17.30
2019-05-02T11:57:38.314Z,17.20
2019-05-02T12:00:10.047Z,17.10
2019-05-02T12:02:49.102Z,17.10
2019-05-02T12:05:22.166Z,17.40
2019-05-02T12:07:52.560Z,17.90
2019-05-02T12:10:23.288Z,17.90
2019-05-02T12:12:59.230Z,17.70
2019-05-02T12:15:32.399Z,17.90
2019-05-02T12:18:05.013Z,17.90
2019-05-02T12:20:44.250Z,17.90
2019-05-02T12:23:03.800Z,18.20
2019-05-02T12:25:33.824Z,18.30
2019-05-02T12:28:06.420Z,18.30
2019-05-02T12:30:41.911Z,18.20
2019-05-02T12:33:13.791Z,18.20
2019-05-02T12:35:43.300Z,17.80
2019-05-02T12:38:12.801Z,17.80
2019-05-02T12:40:43.424Z,17.80
2019-05-02T12:43:15.352Z,17.90
2019-05-02T12:45:46.178Z,18.00
2019-05-02T12:48:15.118Z,18.30
2019-05-02T12:51:03.019Z,18.50
2019-05-02T12:53:34.701Z,18.40
2019-05-02T12:56:07.101Z,18.10
2019-05-02T12:58:36.673Z,18.00
2019-05-02T13:01:05.306Z,17.60
2019-05-02T13:03:37.407Z,17.50
2019-05-02T13:06:12.326Z,17.30
2019-05-02T13:08:49.068Z,17.40
2019-05-02T13:11:36.752Z,17.70
2019-05-02T13:14:18.615Z,17.80
2019-05-02T13:16:42.888Z,17.80
2019-05-02T13:19:15.162Z,18.10
2019-05-02T13:21:58.247Z,18.00
2019-05-02T13:24:29.435Z,17.90
2019-05-02T13:27:01.784Z,18.30
2019-05-02T13:29:34.704Z,18.20
2019-05-02T13:32:08.631Z,18.10
2019-05-02T13:34:43.918Z,18.30
2019-05-02T13:37:15.829Z,18.30
2019-05-02T13:40:06.652Z,18.10
2019-05-02T13:42:36.656Z,18.30
2019-05-02T13:45:15.332Z,18.50
2019-05-02T13:47:45.460Z,18.70
2019-05-02T13:50:18.731Z,18.90
2019-05-02T13:53:02.464Z,19.10
2019-05-02T13:55:32.514Z,19.00
2019-05-02T13:58:02.531Z,18.90
2019-05-02T14:00:37.009Z,19.00
2019-05-02T14:03:11.836Z,18.80
2019-05-02T14:05:49.329Z,18.90
2019-05-02T14:08:27.490Z,18.60
2019-05-02T14:11:06.677Z,18.70
2019-05-02T14:13:32.876Z,18.80
2019-05-02T14:16:02.294Z,18.60
2019-05-02T14:18:34.868Z,18.70
2019-05-02T14:21:05.994Z,18.60
2019-05-02T14:23:34.780Z,18.40
2019-05-02T14:26:03.232Z,18.30
2019-05-02T14:28:36.366Z,18.20
2019-05-02T14:31:08.746Z,18.10
2019-05-02T14:33:42.378Z,18.30
2019-05-02T14:36:11.679Z,18.30
2019-05-02T14:38:41.619Z,18.30
2019-05-02T14:41:14.575Z,18.40
2019-05-02T14:43:48.728Z,18.50
2019-05-02T14:46:22.182Z,18.90
2019-05-02T14:48:53.231Z,18.70
2019-05-02T14:51:27.996Z,18.80
2019-05-02T14:54:07.728Z,18.70
2019-05-02T14:56:55.061Z,18.50
2019-05-02T14:59:28.752Z,18.20
2019-05-02T15:02:05.757Z,17.80
2019-05-02T15:04:38.174Z,17.50
2019-05-02T15:07:07.327Z,17.30
2019-05-02T15:09:41.862Z,17.00
2019-05-02T15:12:18.605Z,16.80
2019-05-02T15:14:49.188Z,16.80
2019-05-02T15:17:22.777Z,16.80
2019-05-02T15:19:54.580Z,16.80
2019-05-02T15:22:27.537Z,16.90
2019-05-02T15:24:56.409Z,17.00
2019-05-02T15:27:24.512Z,17.00
2019-05-02T15:30:05.105Z,17.00
2019-05-02T15:32:32.443Z,16.90
2019-05-02T15:35:04.116Z,16.90
2019-05-02T15:37:35.710Z,16.80
2019-05-02T15:42:34.442Z,16.80
2019-05-02T15:45:05.908Z,16.70
2019-05-02T15:47:45.452Z,16.60
2019-05-02T15:50:05.862Z,16.50
2019-05-02T15:52:36.494Z,16.10
2019-05-02T15:55:11.644Z,15.40
2019-05-02T15:57:43.684Z,15.00
2019-05-02T16:00:15.532Z,14.80
2019-05-02T16:02:43.320Z,14.70
2019-05-02T16:05:12.016Z,14.50
2019-05-02T16:07:44.938Z,14.50
2019-05-02T16:10:13.085Z,14.20
2019-05-02T16:12:43.643Z,13.80
2019-05-02T16:15:18.268Z,13.60
2019-05-02T16:17:42.509Z,13.50
2019-05-02T16:20:19.494Z,13.50
2019-05-02T16:22:49.939Z,13.50
2019-05-02T16:25:20.034Z,13.40
2019-05-02T16:27:48.834Z,13.30
2019-05-02T16:30:22.328Z,13.20
2019-05-02T16:32:52.544Z,13.20
2019-05-02T16:35:22.669Z,13.20
2019-05-02T16:37:54.640Z,13.20
2019-05-02T16:40:29.440Z,13.20
2019-05-02T16:42:52.150Z,13.10
2019-05-02T16:45:22.233Z,13.10
2019-05-02T16:47:58.764Z,13.10
2019-05-02T16:50:22.736Z,13.10
2019-05-02T16:52:53.162Z,13.10
2019-05-02T16:55:26.628Z,13.00
2019-05-02T16:57:56.754Z,13.00
2019-05-02T17:00:24.448Z,12.90
2019-05-02T17:02:53.018Z,12.90
2019-05-02T17:05:22.701Z,12.90
2019-05-02T17:07:53.063Z,12.80
2019-05-02T17:10:34.789Z,12.80
2019-05-02T17:13:02.787Z,12.80
2019-05-02T17:15:35.770Z,12.80
2019-05-02T17:18:12.669Z,12.90
2019-05-02T17:20:36.864Z,12.80
2019-05-02T17:23:07.420Z,12.90
2019-05-02T17:25:36.515Z,12.80
2019-05-02T17:28:09.966Z,12.80
2019-05-02T17:30:39.081Z,12.80
2019-05-02T17:33:07.233Z,12.80
2019-05-02T17:35:36.272Z,12.80
2019-05-02T17:38:05.144Z,12.80
2019-05-02T17:40:33.606Z,12.70
2019-05-02T17:43:06.682Z,12.70
2019-05-02T17:45:33.365Z,12.70
2019-05-02T17:48:02.632Z,12.70
2019-05-02T17:50:35.810Z,12.60
2019-05-02T17:53:06.435Z,12.60
2019-05-02T17:55:54.632Z,12.50
2019-05-02T17:58:20.556Z,12.50
2019-05-02T18:00:54.539Z,12.40
2019-05-02T18:03:24.172Z,12.40
2019-05-02T18:05:52.892Z,12.50
2019-05-02T18:08:21.912Z,12.40
2019-05-02T18:10:54.982Z,12.30
2019-05-02T18:13:22.674Z,12.30
2019-05-02T18:15:53.262Z,12.30
2019-05-02T18:18:22.115Z,12.20
2019-05-02T18:20:52.705Z,12.20
2019-05-02T18:23:25.740Z,12.20
2019-05-02T18:25:52.561Z,12.10
2019-05-02T18:28:25.895Z,12.10
2019-05-02T18:30:52.502Z,12.10
2019-05-02T18:33:22.685Z,12.20
2019-05-02T18:35:52.643Z,12.10
2019-05-02T18:38:24.100Z,12.00
2019-05-02T18:40:55.261Z,12.00
2019-05-02T18:43:22.951Z,12.00
2019-05-02T18:45:51.820Z,12.00
2019-05-02T18:48:21.813Z,11.90
2019-05-02T18:50:52.467Z,12.10
2019-05-02T18:53:24.307Z,12.40
2019-05-02T18:55:51.868Z,12.70
2019-05-02T18:58:22.420Z,12.70
2019-05-02T19:00:51.958Z,12.60
2019-05-02T19:03:22.866Z,12.50
2019-05-02T19:05:56.419Z,12.30
2019-05-02T19:08:30.523Z,12.20
2019-05-02T19:11:04.647Z,12.20
2019-05-02T19:13:22.390Z,12.10
2019-05-02T19:15:53.230Z,12.10
2019-05-02T19:18:21.404Z,12.10
2019-05-02T19:20:57.426Z,12.10
2019-05-02T19:23:23.423Z,12.10
2019-05-02T19:25:52.798Z,12.10
2019-05-02T19:28:23.325Z,12.20
2019-05-02T19:30:52.085Z,12.20
2019-05-02T19:33:21.595Z,12.10
2019-05-02T19:35:52.567Z,12.10
2019-05-02T19:38:26.169Z,12.10
2019-05-02T19:40:52.219Z,12.00
2019-05-02T19:43:22.895Z,12.00
2019-05-02T19:45:53.907Z,12.00
2019-05-02T19:48:22.735Z,12.10
2019-05-02T19:50:51.822Z,12.00
2019-05-02T19:53:22.633Z,12.00
2019-05-02T19:55:52.009Z,12.00
2019-05-02T19:58:21.068Z,12.00
2019-05-02T20:00:49.733Z,12.00
2019-05-02T20:03:21.772Z,12.00
2019-05-02T20:05:49.551Z,12.00
2019-05-02T20:08:21.320Z,12.00
2019-05-02T20:10:49.350Z,12.00
2019-05-02T20:13:20.415Z,12.00
2019-05-02T20:15:52.271Z,11.90
2019-05-02T20:18:20.882Z,11.90
2019-05-02T20:20:54.421Z,11.90
2019-05-02T20:23:28.571Z,11.90
2019-05-02T20:25:53.174Z,11.90
2019-05-02T20:28:21.931Z,11.90
2019-05-02T20:30:52.499Z,11.80
2019-05-02T20:33:22.240Z,11.70
2019-05-02T20:35:52.893Z,11.70
2019-05-02T20:38:21.959Z,11.60
2019-05-02T20:40:52.207Z,11.60
2019-05-02T20:43:22.673Z,11.50
2019-05-02T20:45:52.788Z,11.50
2019-05-02T20:48:22.685Z,11.40
2019-05-02T20:50:52.088Z,11.40
2019-05-02T20:53:28.745Z,11.40
2019-05-02T20:55:52.419Z,11.40
2019-05-02T20:58:22.067Z,11.40
2019-05-02T21:01:04.997Z,11.40
2019-05-02T21:03:21.097Z,11.40
2019-05-02T21:06:09.667Z,11.40
2019-05-02T21:08:55.133Z,11.30
2019-05-02T21:11:24.529Z,11.20
2019-05-02T21:13:53.142Z,11.20
2019-05-02T21:16:21.889Z,11.20
2019-05-02T21:18:50.491Z,11.10
2019-05-02T21:21:21.958Z,11.00
2019-05-02T21:23:52.754Z,10.90
2019-05-02T21:26:22.012Z,10.90
2019-05-02T21:28:52.154Z,10.80
2019-05-02T21:31:22.515Z,10.80
2019-05-02T21:33:51.959Z,10.80
2019-05-02T21:36:22.556Z,10.80
2019-05-02T21:38:52.130Z,10.90
2019-05-02T21:41:22.194Z,10.90
2019-05-02T21:43:51.819Z,10.90
2019-05-02T21:46:22.191Z,10.90
2019-05-02T21:48:52.470Z,10.90
2019-05-02T21:51:42.506Z,10.90
2019-05-02T21:54:14.036Z,10.90
2019-05-02T21:56:49.594Z,10.80
2019-05-02T21:59:18.053Z,10.70
2019-05-02T22:01:51.982Z,10.60
2019-05-02T22:04:22.536Z,10.50
2019-05-02T22:06:52.231Z,10.40
2019-05-02T22:09:22.970Z,10.30
2019-05-02T22:11:52.015Z,10.20
2019-05-02T22:14:22.304Z,10.10
2019-05-02T22:16:53.044Z,10.00
2019-05-02T22:19:21.497Z,9.90
2019-05-02T22:21:53.154Z,9.80
2019-05-02T22:24:21.777Z,9.80
2019-05-02T22:26:52.424Z,9.80
2019-05-02T22:29:21.838Z,9.70
2019-05-02T22:31:52.164Z,9.60
2019-05-02T22:34:22.011Z,9.50
2019-05-02T22:36:53.913Z,9.50
2019-05-02T22:39:34.436Z,9.50
2019-05-02T22:42:04.617Z,9.50
2019-05-02T22:44:33.137Z,9.40
2019-05-02T22:47:01.568Z,9.30
2019-05-02T22:49:31.786Z,9.40
2019-05-02T22:52:00.153Z,9.30
2019-05-02T22:54:32.940Z,9.30
2019-05-02T22:56:58.843Z,9.30
2019-05-02T22:59:27.539Z,9.40
2019-05-02T23:01:57.009Z,9.30
2019-05-02T23:04:26.016Z,9.30
2019-05-02T23:06:54.467Z,9.30
2019-05-02T23:09:23.170Z,9.30
2019-05-02T23:11:52.040Z,9.30
2019-05-02T23:14:22.214Z,9.30
2019-05-02T23:16:52.601Z,9.30
2019-05-02T23:19:22.879Z,9.20
2019-05-02T23:21:52.729Z,9.20
2019-05-02T23:24:35.942Z,9.20
2019-05-02T23:26:54.942Z,9.10
2019-05-02T23:29:23.384Z,9.10
2019-05-02T23:31:52.246Z,9.10
2019-05-02T23:34:23.272Z,9.20
2019-05-02T23:36:52.232Z,9.10
2019-05-02T23:39:20.952Z,9.20
2019-05-02T23:41:49.409Z,9.30
2019-05-02T23:44:17.836Z,9.30
2019-05-02T23:46:46.969Z,9.40
2019-05-02T23:49:15.422Z,9.40
2019-05-02T23:51:43.843Z,9.40
2019-05-02T23:54:12.946Z,9.40
2019-05-02T23:56:42.949Z,9.40
2019-05-02T23:59:12.294Z,9.40
